This is the latest recevied weather packets stored in our database for station/object JO1YDG-13. If no packets are shown the sender has not sent any weather packets the latest 10 day(s).
| Time | Temp. | Humidity | Pressure | Rain* | Wind** | Luminosity | Snow |
|---|---|---|---|---|---|---|---|
| 1778039284 | 17.78° C | 54% | 992.5 hPa | 0 mm | - | - | - |
| 1778038984 | 17.78° C | 53% | 992.5 hPa | 0 mm | - | - | - |
| 1778038684 | 17.78° C | 54% | 992.9 hPa | 0 mm | - | - | - |
| 1778038384 | 18.33° C | 53% | 992.9 hPa | 0 mm | - | - | - |
| 1778038083 | 17.78° C | 53% | 992.9 hPa | 0 mm | - | - | - |
| 1778037783 | 17.78° C | 52% | 993 hPa | 0 mm | - | - | - |
| 1778037483 | 17.78° C | 52% | 993 hPa | 0 mm | - | - | - |
| 1778037183 | 17.78° C | 53% | 993.1 hPa | 0 mm | - | - | - |
| 1778036883 | 17.22° C | 53% | 993.1 hPa | 0 mm | - | - | - |
| 1778036584 | 17.22° C | 54% | 993.1 hPa | 0 mm | - | - | - |
| 1778036284 | 17.22° C | 54% | 993.2 hPa | 0 mm | - | - | - |
| 1778035984 | 17.22° C | 53% | 993.2 hPa | 0 mm | - | - | - |
| 1778035683 | 17.22° C | 53% | 993.4 hPa | 0 mm | - | - | - |
| 1778035085 | 16.67° C | 54% | 993.5 hPa | 0 mm | - | - | - |
| 1778034784 | 17.22° C | 54% | 993.5 hPa | 0 mm | - | - | - |
| 1778034483 | 17.22° C | 55% | 993.5 hPa | 0 mm | - | - | - |
| 1778034187 | 17.22° C | 54% | 993.8 hPa | 0 mm | - | - | - |
| 1778033885 | 17.22° C | 54% | 993.8 hPa | 0 mm | - | - | - |
| 1778033585 | 17.22° C | 54% | 993.9 hPa | 0 mm | - | - | - |
| 1778033284 | 16.67° C | 55% | 993.9 hPa | 0 mm | - | - | - |
| 1778032684 | 16.11° C | 58% | 994.2 hPa | 0 mm | - | - | - |
| 1778032084 | 16.11° C | 58% | 994.3 hPa | 0 mm | - | - | - |
| 1778027583 | 13.89° C | 66% | 995.3 hPa | 0 mm | - | - | - |
| 1778026985 | 13.89° C | 67% | 995.3 hPa | 0 mm | - | - | - |
| 1778025484 | 13.33° C | 70% | 995.4 hPa | 0 mm | - | - | - |
* Rain latest hour (hover to see other rain measurements)
** Current wind speed in m/s (hover to see current wind gust speed)